createdAt,value
2023-03-26T00:00:35.097Z,1.05
2023-03-26T00:05:37.055Z,1.10
2023-03-26T00:10:40.492Z,1.08
2023-03-26T00:15:42.234Z,0.90
2023-03-26T00:20:45.401Z,0.98
2023-03-26T00:25:50.833Z,1.13
2023-03-26T00:31:00.966Z,1.20
2023-03-26T00:36:04.409Z,1.00
2023-03-26T00:41:17.305Z,1.55
2023-03-26T00:46:19.532Z,1.08
2023-03-26T00:51:22.039Z,1.33
2023-03-26T00:56:24.126Z,1.00
2023-03-26T01:01:28.648Z,1.00
2023-03-26T01:06:36.172Z,1.00
2023-03-26T01:11:38.595Z,1.20
2023-03-26T01:16:47.113Z,1.20
2023-03-26T01:21:49.114Z,0.77
2023-03-26T01:27:04.312Z,1.23
2023-03-26T01:32:28.814Z,1.10
2023-03-26T01:37:59.612Z,1.00
2023-03-26T01:43:36.158Z,1.00
2023-03-26T01:48:44.643Z,1.05
2023-03-26T01:53:48.081Z,1.60
2023-03-26T01:59:16.746Z,1.00
2023-03-26T02:04:41.040Z,1.10
2023-03-26T02:09:47.295Z,1.07
2023-03-26T02:14:49.457Z,1.23
2023-03-26T02:19:54.270Z,1.75
2023-03-26T02:24:56.340Z,1.53
2023-03-26T02:29:58.793Z,1.30
2023-03-26T02:35:01.410Z,1.15
2023-03-26T02:40:06.265Z,1.73
2023-03-26T02:45:08.702Z,1.50
2023-03-26T02:50:32.481Z,1.35
2023-03-26T02:55:53.160Z,3.20
2023-03-26T03:00:57.804Z,1.33
2023-03-26T03:06:05.462Z,1.63
2023-03-26T03:11:18.202Z,1.70
2023-03-26T03:16:22.042Z,1.90
2023-03-26T03:21:25.289Z,1.48
2023-03-26T03:26:29.631Z,1.33
2023-03-26T03:31:33.291Z,1.83
2023-03-26T03:36:39.468Z,1.25
2023-03-26T03:41:51.022Z,1.80
2023-03-26T03:46:55.498Z,1.63
2023-03-26T03:51:57.425Z,1.90
2023-03-26T03:57:05.196Z,1.58
2023-03-26T04:02:07.199Z,1.67
2023-03-26T04:07:16.247Z,1.42
2023-03-26T04:12:40.671Z,1.75
2023-03-26T04:17:45.255Z,1.98
2023-03-26T04:22:49.651Z,1.50
2023-03-26T04:27:55.653Z,1.65
2023-03-26T04:33:17.770Z,1.50
2023-03-26T04:38:19.931Z,1.90
2023-03-26T04:43:26.348Z,1.70
2023-03-26T04:48:52.028Z,1.88
2023-03-26T04:53:55.493Z,1.73
2023-03-26T04:59:03.603Z,1.83
2023-03-26T05:04:09.613Z,2.05
2023-03-26T05:09:11.634Z,1.52
2023-03-26T05:14:31.932Z,1.90
2023-03-26T05:24:39.854Z,1.77
2023-03-26T05:29:42.217Z,1.70
2023-03-26T05:34:44.349Z,1.63
2023-03-26T05:39:47.818Z,1.77
2023-03-26T05:45:10.752Z,1.73
2023-03-26T05:55:18.561Z,1.40
2023-03-26T06:00:39.159Z,1.42
2023-03-26T06:05:44.342Z,1.27
2023-03-26T06:10:58.667Z,2.45
2023-03-26T06:16:00.524Z,1.60
2023-03-26T06:21:07.737Z,2.38
2023-03-26T06:26:35.760Z,1.73
2023-03-26T06:32:01.412Z,1.25
2023-03-26T06:37:17.570Z,1.30
2023-03-26T06:42:21.390Z,1.40
2023-03-26T06:48:13.519Z,1.50
2023-03-26T06:53:44.534Z,1.38
2023-03-26T06:59:06.338Z,1.33
2023-03-26T07:04:26.732Z,1.40
2023-03-26T07:09:47.995Z,1.38
2023-03-26T07:15:15.733Z,1.42
2023-03-26T07:20:29.110Z,1.02
2023-03-26T07:25:31.435Z,1.52
2023-03-26T07:31:03.395Z,1.42
2023-03-26T07:36:30.062Z,1.60
2023-03-26T07:41:51.223Z,1.30
2023-03-26T07:47:26.328Z,1.90
2023-03-26T07:52:50.931Z,1.48
2023-03-26T08:03:57.564Z,1.40
2023-03-26T08:09:54.216Z,1.15
2023-03-26T08:15:25.715Z,1.45
2023-03-26T08:20:43.564Z,1.08
2023-03-26T08:26:19.622Z,1.10
2023-03-26T08:31:32.982Z,3.92
2023-03-26T08:36:34.795Z,2.88
2023-03-26T08:42:29.100Z,2.13
2023-03-26T08:48:15.464Z,2.87
2023-03-26T08:53:38.930Z,3.33
2023-03-26T08:59:15.418Z,5.55
2023-03-26T09:05:01.163Z,5.07
2023-03-26T09:10:28.344Z,6.22
2023-03-26T09:15:58.182Z,3.00
2023-03-26T09:21:27.526Z,2.90
2023-03-26T09:27:16.670Z,2.13
2023-03-26T09:32:37.462Z,2.40
2023-03-26T09:37:56.869Z,2.15
2023-03-26T09:43:23.152Z,1.70
2023-03-26T09:48:31.127Z,1.70
2023-03-26T09:53:57.367Z,2.38
2023-03-26T09:59:08.158Z,1.95
2023-03-26T10:04:35.694Z,1.65
2023-03-26T10:09:48.253Z,2.00
2023-03-26T10:15:21.151Z,2.13
2023-03-26T10:20:42.823Z,2.00
2023-03-26T10:25:56.699Z,2.45
2023-03-26T10:31:23.826Z,2.27
2023-03-26T10:36:34.221Z,2.95
2023-03-26T10:41:54.301Z,2.50
2023-03-26T10:47:14.660Z,1.85
2023-03-26T10:52:23.355Z,1.88
2023-03-26T10:57:34.064Z,1.92
2023-03-26T11:02:44.663Z,1.60
2023-03-26T11:08:08.837Z,1.20
2023-03-26T11:13:25.974Z,1.70
2023-03-26T11:18:53.289Z,1.60
2023-03-26T11:24:22.819Z,2.20
2023-03-26T11:29:33.597Z,1.42
2023-03-26T11:34:42.985Z,1.02
2023-03-26T11:39:55.905Z,1.40
2023-03-26T11:45:05.502Z,1.52
2023-03-26T11:50:20.642Z,1.20
2023-03-26T11:55:25.483Z,1.38
2023-03-26T12:00:29.616Z,1.17
2023-03-26T12:05:34.192Z,1.00
2023-03-26T12:10:42.894Z,1.27
2023-03-26T12:15:46.669Z,1.10
2023-03-26T12:20:49.320Z,0.90
2023-03-26T12:26:24.709Z,0.90
2023-03-26T12:31:30.325Z,1.02
2023-03-26T12:36:33.744Z,1.00
2023-03-26T12:44:47.043Z,1.10
2023-03-26T12:47:56.896Z,0.90
2023-03-26T12:52:49.569Z,1.02
2023-03-26T12:58:15.423Z,1.00
2023-03-26T13:03:41.895Z,1.27
2023-03-26T13:08:58.633Z,1.50
2023-03-26T13:14:23.984Z,0.98
2023-03-26T13:19:47.838Z,0.80
2023-03-26T13:25:04.184Z,1.10
2023-03-26T13:30:15.353Z,1.15
2023-03-26T13:35:33.163Z,1.02
2023-03-26T13:41:01.076Z,0.65
2023-03-26T13:46:21.611Z,0.60
2023-03-26T13:51:39.820Z,0.82
2023-03-26T13:56:51.199Z,0.82
2023-03-26T14:02:08.868Z,0.80
2023-03-26T14:07:24.826Z,0.70
2023-03-26T14:12:38.534Z,0.68
2023-03-26T14:17:48.221Z,0.60
2023-03-26T14:22:55.773Z,0.77
2023-03-26T14:28:19.191Z,0.60
2023-03-26T14:33:34.066Z,0.60
2023-03-26T14:38:59.119Z,0.40
2023-03-26T14:44:47.558Z,0.65
2023-03-26T14:50:46.604Z,0.77
2023-03-26T14:56:09.533Z,0.50
2023-03-26T15:01:26.704Z,0.73
2023-03-26T15:06:51.243Z,0.50
2023-03-26T15:12:12.642Z,0.52
2023-03-26T15:17:39.642Z,0.80
2023-03-26T15:22:41.420Z,1.08
2023-03-26T15:28:27.633Z,1.15
2023-03-26T15:33:54.018Z,1.30
2023-03-26T15:39:33.538Z,0.80
2023-03-26T15:45:22.241Z,0.80
2023-03-26T15:50:38.105Z,1.85
2023-03-26T15:55:52.995Z,2.10
2023-03-26T16:01:09.432Z,1.80
2023-03-26T16:06:30.808Z,1.55
2023-03-26T16:11:56.262Z,2.65
2023-03-26T16:17:00.962Z,2.95
2023-03-26T16:22:12.393Z,2.75
2023-03-26T16:27:14.235Z,2.20
2023-03-26T16:32:17.435Z,3.50
2023-03-26T16:37:40.133Z,4.30
2023-03-26T16:42:50.293Z,1.90
2023-03-26T16:48:19.560Z,0.90
2023-03-26T16:53:52.284Z,1.50
2023-03-26T16:58:59.336Z,0.80
2023-03-26T17:04:23.514Z,0.70
2023-03-26T17:09:25.482Z,0.63
2023-03-26T17:14:34.414Z,0.73
2023-03-26T17:19:48.956Z,0.90
2023-03-26T17:30:46.912Z,0.77
2023-03-26T17:35:51.014Z,0.60
2023-03-26T17:41:00.922Z,0.60
2023-03-26T17:46:10.777Z,0.60
2023-03-26T17:51:12.700Z,0.60
2023-03-26T17:56:22.622Z,0.77
2023-03-26T18:01:41.335Z,0.50
2023-03-26T18:07:17.020Z,0.60
2023-03-26T18:12:54.817Z,0.60
2023-03-26T18:18:19.846Z,0.63
2023-03-26T18:23:35.128Z,0.47
2023-03-26T18:28:42.538Z,0.60
2023-03-26T18:33:49.629Z,0.90
2023-03-26T18:38:55.994Z,1.23
2023-03-26T18:44:02.406Z,0.93
2023-03-26T18:49:04.484Z,0.90
2023-03-26T18:54:08.106Z,0.80
2023-03-26T18:59:32.024Z,1.00
2023-03-26T19:04:36.855Z,0.70
2023-03-26T19:09:39.458Z,0.90
2023-03-26T19:14:58.014Z,0.50
2023-03-26T19:20:00.604Z,0.80
2023-03-26T19:25:03.317Z,0.80
2023-03-26T19:30:05.678Z,1.10
2023-03-26T19:35:22.823Z,0.60
2023-03-26T19:40:30.502Z,0.30
2023-03-26T19:45:34.566Z,0.50
2023-03-26T19:50:42.127Z,0.40
2023-03-26T19:56:05.279Z,0.50
2023-03-26T20:01:18.759Z,0.67
2023-03-26T20:06:30.814Z,0.50
2023-03-26T20:11:40.704Z,1.95
2023-03-26T20:22:07.974Z,1.00
2023-03-26T20:27:09.882Z,1.00
2023-03-26T20:32:23.049Z,1.20
2023-03-26T20:37:26.285Z,1.40
2023-03-26T20:42:27.977Z,1.30
2023-03-26T20:47:29.732Z,1.20
2023-03-26T20:52:31.491Z,1.50
2023-03-26T20:57:35.900Z,1.33
2023-03-26T21:02:37.773Z,1.20
2023-03-26T21:07:39.895Z,1.75
2023-03-26T21:13:04.232Z,1.30
2023-03-26T21:18:06.508Z,1.30
2023-03-26T21:23:13.227Z,1.17
2023-03-26T21:28:28.941Z,1.10
2023-03-26T21:33:37.365Z,1.17
2023-03-26T21:38:39.845Z,1.02
2023-03-26T21:43:41.738Z,1.23
2023-03-26T21:48:43.657Z,1.08
2023-03-26T21:53:45.807Z,1.17
2023-03-26T21:59:01.438Z,1.00
2023-03-26T22:04:14.218Z,1.10
2023-03-26T22:09:18.521Z,1.20
2023-03-26T22:14:22.502Z,1.10
2023-03-26T22:19:24.352Z,1.10
2023-03-26T22:24:26.167Z,1.15
2023-03-26T22:29:28.004Z,1.20
2023-03-26T22:34:30.628Z,0.90
2023-03-26T22:39:32.328Z,1.15
2023-03-26T22:44:34.048Z,1.17
2023-03-26T22:49:35.916Z,1.05
2023-03-26T22:54:38.585Z,1.15
2023-03-26T22:59:40.279Z,0.98
2023-03-26T23:04:42.621Z,0.90
2023-03-26T23:09:45.611Z,0.70
2023-03-26T23:14:52.196Z,0.77
2023-03-26T23:19:54.182Z,0.65
2023-03-26T23:24:55.883Z,0.40
2023-03-26T23:29:58.003Z,0.30
2023-03-26T23:34:59.767Z,0.40
2023-03-26T23:40:01.474Z,0.30
2023-03-26T23:45:04.715Z,0.20
2023-03-26T23:50:07.790Z,0.30
2023-03-26T23:55:09.871Z,0.30
